Hlavní strana
METAR-TAF:

METAR-TAF

Letiště :

Murray, Kentucky, Spojené státy americké

zeměpisná šířka: 36-39-52N, zeměpisná délka: 088-22-22W, výška: 176 m

Aktuální stav počasí

Zpráva byla vytvořena před 1 hodinou a 51 minutami, v 02:15 UTC
Bezvětří
Teplota -3°C
Vlhkost vzduchu 63%
Tlak 1034 hPa
Viditelnost: 16.1 km
Jasno

METAR: KCEY 220215Z AUTO 00000KT 10SM CLR M03/M09 A3053 RMK AO1

Čas: 22:06 (04:06 UTC)


TAF: chybějící

Stav a předpovědi počasí z více než 4 000 letišť (zprávy METAR a TAF).

Červené a žluté tečky na mapě představují dostupné meteorologické stanice.

Když kurzor umístíte na tečku, zobrazí se název stanice.

Pak kliknutím zobrazíte stav a předpověď počasí.

Chcete-li změnit mapu, kliknutím na zelené tlačítko se znaménkem +mapu přiblížíte, kliknutím na zelené tlačítko se znaménkem – mapu oddálíte a kliknutím na zelené šipky přejdete na sousední mapy.


METAR-TAF: